aviador You're here:

VQPR Decoded Metar

PARO in BHUTAN
Report Time2017-11-24 01:30:00
UTC Time2017-11-24 01:59:58
Flight Rules mvfr MVFR
WindCalm
Visibility6000 m
Phenomena:N/A
Clouds:Scattered 050 Hf
Scattered 090 Hf
Expected CloudBase > 1,600 ft AGL from Temp-Dew spread
CeilingNone
Temp06°C
Dew Point02°C (76% RH)
AAT4.3°C
QNH1023 hPa
Raw Report
METAR VQPR 240130Z 00000KT 6000 SCT050 SCT090 06/02 Q1023=

Extra information for VQPR:More info

Metar Taf Metar & Taf Last 4 Metars F.Rules Stats Wind Profile Meteogram Temp Stats Airport Information Weather charts Add Link Nearby VenuesMetar ALERT Operation Metar Decoded Social comments